Long Xiang 606 — 9GMZ — position and weather

sailwx.info

Track history (hours):
 
Tides and Currents Weather Stations Pressure Air Temp Water Temp Dewpoint Dewpoint Depression Visibility Wind Speed Wind Dir Waves Ship Positions

Long Xiang 606

Last reported at 2017-Nov-10 02:00 UTC. Time now 2017-Nov-21 04:21 UTC.
Position N 05°32' E 000°01'.
Warning: this ship's position is 11 days out of date.

Length 43 m.

Type: Fishing. MMSI: 627220000.

Date/timePositionNaut miles runAvg speedWind from/ knotsBaromVisibWave heightAir tempDewpointWater temp
2017-Nov-10 02:00N 05°32' E 000°01'4 4.1
2017-Nov-10 00:59N 05°33' E 000°05'2 3.7
2017-Nov-10 00:30N 05°33' E 000°03'2 4.3
2017-Nov-10 00:01N 05°32' E 000°01'2 4.3
2017-Nov-09 23:30N 05°32' W 000°01'1 0.0
2017-Nov-09 03:58N 05°31' W 000°02'7 4.2
2017-Nov-09 02:16N 05°33' E 000°05'0 1.0
2017-Nov-09 02:00N 05°33' E 000°06'2 3.7
2017-Nov-09 01:30N 05°33' E 000°04'2 4.2
2017-Nov-09 00:55N 05°32' E 000°01'2 4.2
2017-Nov-09 00:26N 05°32' W 000°01'1 0.3
2017-Nov-08 22:18N 05°32' W 000°01'2 3.9
2017-Nov-08 21:53N 05°33' E 000°00'5 3.8
2017-Nov-08 20:31N 05°33' E 000°05'0 8.7
2017-Nov-08 20:28N 05°33' E 000°05'3 5.9
2017-Nov-08 20:00N 05°35' E 000°03'1 0.5
2017-Nov-08 18:03N 05°35' E 000°02'0 1.2
2017-Nov-08 18:00N 05°35' E 000°02'1 2.8
2017-Nov-08 17:30N 05°36' E 000°01'0 0.4
2017-Nov-08 17:00N 05°37' E 000°01'0 0.0
2017-Nov-08 16:30N 05°37' E 000°01'0 0.0
2017-Nov-08 16:00N 05°37' E 000°01'0 0.0
2017-Nov-08 15:29N 05°37' E 000°01'0 0.0
2017-Nov-08 14:59N 05°37' E 000°01'0 0.0
2017-Nov-08 14:29N 05°37' E 000°01'0 0.0
2017-Nov-08 13:59N 05°37' E 000°01'0 0.0
2017-Nov-08 13:29N 05°37' E 000°01'0 0.0
2017-Nov-08 12:59N 05°37' E 000°01'0 0.0
2017-Nov-08 12:29N 05°37' E 000°01'0 0.0
2017-Nov-08 11:59N 05°37' E 000°01'0 0.0
2017-Nov-08 11:29N 05°37' E 000°01'0 0.0
2017-Nov-08 10:59N 05°37' E 000°01'0 0.0
2017-Nov-08 10:23N 05°37' E 000°01'0 0.9
2017-Nov-08 10:00N 05°36' E 000°01'0 0.0
2017-Nov-08 09:27N 05°36' E 000°01'0 0.0
2017-Nov-08 09:00N 05°36' E 000°01'0 0.0
2017-Nov-08 08:30N 05°36' E 000°01'1 2.8
2017-Nov-08 08:00N 05°38' E 000°02'0 0.2
2017-Nov-08 07:30N 05°37' E 000°01'1 2.5
2017-Nov-08 06:59N 05°36' E 000°01'0 0.0
2017-Nov-08 06:29N 05°36' E 000°01'0 0.0
2017-Nov-08 05:59N 05°36' E 000°01'0 0.0
2017-Nov-08 05:29N 05°36' E 000°01'0 0.0
2017-Nov-08 04:56N 05°36' E 000°01'0 0.0
2017-Nov-08 04:29N 05°36' E 000°01'0 0.0
2017-Nov-08 03:59N 05°36' E 000°01'0 0.0
2017-Nov-08 03:29N 05°36' E 000°01'0 0.0
2017-Nov-08 02:59N 05°36' E 000°01'0 0.0
2017-Nov-08 02:26N 05°36' E 000°01'0 0.0
2017-Nov-08 01:59N 05°36' E 000°01'0 0.0
2017-Nov-08 01:29N 05°36' E 000°01'0 0.0
2017-Nov-08 00:59N 05°36' E 000°01'0 0.0
2017-Nov-08 00:26N 05°36' E 000°01'0 0.0
2017-Nov-07 23:59N 05°36' E 000°01'0 0.0
2017-Nov-07 23:29N 05°36' E 000°01'0 0.0
2017-Nov-07 22:59N 05°36' E 000°01'0 0.0
2017-Nov-07 22:29N 05°36' E 000°01'0 0.0
2017-Nov-07 21:59N 05°36' E 000°01'0 0.0
2017-Nov-07 21:29N 05°36' E 000°01'0 0.0
2017-Nov-07 20:56N 05°36' E 000°01'0 0.0
2017-Nov-07 20:29N 05°36' E 000°01'0 0.0
2017-Nov-07 19:59N 05°36' E 000°01'0 0.0
2017-Nov-07 19:29N 05°36' E 000°01'0 0.0
2017-Nov-07 18:59N 05°36' E 000°01'0 0.0
2017-Nov-07 18:29N 05°36' E 000°01'0 0.0
2017-Nov-07 17:59N 05°36' E 000°01'0 0.0
2017-Nov-07 17:29N 05°36' E 000°01'0 0.0
2017-Nov-07 16:59N 05°36' E 000°01'0 0.0
2017-Nov-07 16:29N 05°36' E 000°01'0 0.0
2017-Nov-07 15:59N 05°36' E 000°01'0 0.0
2017-Nov-07 15:23N 05°36' E 000°01'0 0.0
2017-Nov-07 14:59N 05°36' E 000°01'0 0.0
2017-Nov-07 14:29N 05°36' E 000°01'0 0.0
2017-Nov-07 13:59N 05°36' E 000°01'0 0.0
2017-Nov-07 13:29N 05°36' E 000°01'0 0.0
2017-Nov-07 12:59N 05°36' E 000°01'0 0.0
2017-Nov-07 12:29N 05°36' E 000°01'0 0.0
2017-Nov-07 11:59N 05°36' E 000°01'0 0.0
2017-Nov-07 11:23N 05°36' E 000°01'0 0.0
2017-Nov-07 10:59N 05°36' E 000°01'0 0.0
2017-Nov-07 10:29N 05°36' E 000°01'0 0.0
2017-Nov-07 09:59N 05°36' E 000°01'0 0.0
2017-Nov-07 09:29N 05°36' E 000°01'0 0.0
2017-Nov-07 08:59N 05°36' E 000°01'0 0.0
2017-Nov-07 08:29N 05°36' E 000°01'0 0.0
2017-Nov-07 07:59N 05°36' E 000°01'0 0.0
2017-Nov-07 07:29N 05°36' E 000°01'0 0.0
2017-Nov-07 06:59N 05°36' E 000°01'0 0.0
2017-Nov-07 06:29N 05°36' E 000°01'0 0.0
2017-Nov-07 05:59N 05°36' E 000°01'0 0.0
2017-Nov-07 05:29N 05°36' E 000°01'0 0.0
2017-Nov-07 04:59N 05°36' E 000°01'0 0.0
2017-Nov-07 04:23N 05°36' E 000°01'0 0.0
2017-Nov-07 03:59N 05°36' E 000°01'0 0.0
2017-Nov-07 03:29N 05°36' E 000°01'0 0.0
2017-Nov-07 02:59N 05°36' E 000°01'0 0.0
2017-Nov-07 02:29N 05°36' E 000°01'0 0.0
2017-Nov-07 01:59N 05°36' E 000°01'0 0.0
2017-Nov-07 01:29N 05°36' E 000°01'0 0.0
2017-Nov-07 00:59N 05°36' E 000°01'0 0.0
2017-Nov-07 00:29N 05°36' E 000°01'0 0.0
2017-Nov-06 23:59N 05°36' E 000°01'0 0.0
2017-Nov-06 23:26N 05°36' E 000°01'0 0.0
2017-Nov-06 22:59N 05°36' E 000°01'0 0.0
2017-Nov-06 22:29N 05°36' E 000°01'0 0.0
2017-Nov-06 21:59N 05°36' E 000°01'0 0.0
2017-Nov-06 21:29N 05°36' E 000°01'0 0.0
2017-Nov-06 20:59N 05°36' E 000°01'0 0.0
2017-Nov-06 20:29N 05°36' E 000°01'0 0.0
2017-Nov-06 02:29N 05°36' E 000°01'0 0.0
2017-Nov-06 01:59N 05°36' E 000°01'0 0.0
2017-Nov-06 01:29N 05°36' E 000°01'0 0.0
2017-Nov-06 00:59N 05°36' E 000°01'0 0.0
2017-Nov-06 00:29N 05°36' E 000°01'0 0.0
2017-Nov-05 23:59N 05°36' E 000°01'0 0.0
2017-Nov-05 23:29N 05°36' E 000°01'0 0.1
2017-Nov-05 22:59N 05°36' E 000°01'0 0.0
2017-Nov-05 22:29N 05°36' E 000°01'0 0.0
2017-Nov-05 21:59N 05°36' E 000°01'0 0.0
2017-Nov-05 21:29N 05°36' E 000°01'0 0.0
2017-Nov-05 20:59N 05°36' E 000°01'0 0.0
2017-Nov-05 20:29N 05°36' E 000°01'0 0.0
2017-Nov-05 19:59N 05°36' E 000°01'0 0.0
2017-Nov-05 19:29N 05°36' E 000°01'0 0.0
2017-Nov-05 18:59N 05°36' E 000°01'0 0.0
2017-Nov-05 18:29N 05°36' E 000°01'0 0.0
2017-Nov-05 17:59N 05°36' E 000°01'0 0.0
2017-Nov-05 17:29N 05°36' E 000°01'0 0.0
2017-Nov-05 16:59N 05°36' E 000°01'0 0.0
2017-Nov-05 16:29N 05°36' E 000°01'0 0.0
2017-Nov-05 15:59N 05°36' E 000°01'0 0.0
2017-Nov-05 15:29N 05°36' E 000°01'0 0.0
2017-Nov-05 14:59N 05°36' E 000°01'0 0.0
2017-Nov-05 14:29N 05°36' E 000°01'0 0.0
2017-Nov-05 13:59N 05°36' E 000°01'0 0.0
2017-Nov-05 13:29N 05°36' E 000°01'0 0.0
2017-Nov-05 12:59N 05°36' E 000°01'0 0.0
2017-Nov-05 12:29N 05°36' E 000°01'0 0.0
2017-Nov-05 11:59N 05°36' E 000°01'0 0.0
2017-Nov-05 11:29N 05°36' E 000°01'0 0.0
2017-Nov-05 10:59N 05°36' E 000°01'0 0.0
2017-Nov-05 10:29N 05°36' E 000°01'0 0.0
2017-Nov-05 09:59N 05°36' E 000°01'0 0.0
2017-Nov-05 09:29N 05°36' E 000°01'0 0.0
2017-Nov-05 08:59N 05°36' E 000°01'0 0.0
2017-Nov-05 08:29N 05°36' E 000°01'0 0.0
2017-Nov-05 07:59N 05°36' E 000°01'0 0.0
2017-Nov-05 07:29N 05°36' E 000°01'0 0.0
2017-Nov-05 06:56N 05°36' E 000°01'0 0.0
2017-Nov-05 06:29N 05°36' E 000°01'0 0.0
2017-Nov-05 05:59N 05°36' E 000°01'0 0.0
2017-Nov-05 05:29N 05°36' E 000°01'0 0.0
2017-Nov-05 04:53N 05°36' E 000°01'0 0.0
2017-Nov-05 04:29N 05°36' E 000°01'0 0.0
2017-Nov-05 03:59N 05°36' E 000°01'0 0.0
2017-Nov-05 03:29N 05°36' E 000°01'0 0.0
2017-Nov-05 02:59N 05°36' E 000°01'0 0.0
2017-Nov-05 02:29N 05°36' E 000°01'0 0.0
2017-Nov-05 01:59N 05°36' E 000°01'0 0.0
2017-Nov-05 01:29N 05°36' E 000°01'0 0.0
2017-Nov-05 00:59N 05°36' E 000°01'0 0.0
2017-Nov-05 00:29N 05°36' E 000°01'0 0.0
2017-Nov-04 23:59N 05°36' E 000°01'0 0.0
2017-Nov-04 23:29N 05°36' E 000°01'0 0.0
2017-Nov-04 22:59N 05°36' E 000°01'0 0.0
2017-Nov-04 22:29N 05°36' E 000°01'0 0.0
2017-Nov-04 21:59N 05°36' E 000°01'0 0.0
2017-Nov-04 21:29N 05°36' E 000°01'0 0.0
2017-Nov-04 20:59N 05°36' E 000°01'0 0.0
2017-Nov-04 20:29N 05°36' E 000°01'0 0.0
2017-Nov-04 19:59N 05°36' E 000°01'0 0.0
2017-Nov-04 19:29N 05°36' E 000°01'0 0.0
2017-Nov-04 18:59N 05°36' E 000°01'0 0.0
2017-Nov-04 18:29N 05°36' E 000°01'0 0.0
2017-Nov-04 17:59N 05°36' E 000°01'0 0.0
2017-Nov-04 17:29N 05°36' E 000°01'0 0.0
2017-Nov-04 16:59N 05°36' E 000°01'0 0.0
2017-Nov-04 16:29N 05°36' E 000°01'0 0.0
2017-Nov-04 15:59N 05°36' E 000°01'0 0.0
2017-Nov-04 15:29N 05°36' E 000°01'0 0.0
2017-Nov-04 14:59N 05°36' E 000°01'0 0.0
2017-Nov-04 14:29N 05°36' E 000°01'0 0.0
2017-Nov-04 13:59N 05°36' E 000°01'0 0.0
2017-Nov-04 13:29N 05°36' E 000°01'0 0.0
2017-Nov-04 12:59N 05°36' E 000°01'0 0.0
2017-Nov-04 12:29N 05°36' E 000°01'0 0.0
2017-Nov-04 11:59N 05°36' E 000°01'0 0.0
2017-Nov-04 11:29N 05°36' E 000°01'0 0.0
2017-Nov-04 10:59N 05°36' E 000°01'0 0.0
2017-Nov-04 10:29N 05°36' E 000°01'0 0.0
2017-Nov-04 09:59N 05°36' E 000°01'0 0.0
2017-Nov-04 09:29N 05°36' E 000°01'0 0.0
2017-Nov-04 08:59N 05°36' E 000°01'0 0.0
2017-Nov-04 08:29N 05°36' E 000°01'0 0.0
2017-Nov-04 07:59N 05°36' E 000°01'0 0.0
2017-Nov-04 07:23N 05°36' E 000°01'0 0.0
2017-Nov-04 06:59N 05°36' E 000°01'0 0.0
2017-Nov-04 06:29N 05°36' E 000°01'0 0.0
2017-Nov-04 05:59N 05°36' E 000°01'0 0.0
2017-Nov-04 05:29N 05°36' E 000°01'0 0.0
2017-Nov-04 04:59N 05°36' E 000°01'0 0.0
2017-Nov-04 04:29N 05°36' E 000°01'0 0.0
2017-Nov-04 03:59N 05°36' E 000°01'0 0.0
2017-Nov-04 03:29N 05°36' E 000°01'0 0.0
2017-Nov-04 02:59N 05°36' E 000°01'0 0.0
2017-Nov-04 02:26N 05°36' E 000°01'0 0.0
2017-Nov-04 01:59N 05°36' E 000°01'0 0.0
2017-Nov-04 01:29N 05°36' E 000°01'0 0.0
2017-Nov-04 00:59N 05°36' E 000°01'0 0.0
2017-Nov-04 00:29N 05°36' E 000°01'0 0.0
2017-Nov-03 23:59N 05°36' E 000°01'0 0.0
2017-Nov-03 23:29N 05°36' E 000°01'0 0.0
2017-Nov-03 22:59N 05°36' E 000°01'0 0.0
2017-Nov-03 22:29N 05°36' E 000°01'0 0.0
2017-Nov-03 21:59N 05°36' E 000°01'0 0.0
2017-Nov-03 21:29N 05°36' E 000°01'0 0.0
2017-Nov-03 20:59N 05°36' E 000°01'0 0.0
2017-Nov-03 20:26N 05°36' E 000°01'0 0.0
2017-Nov-03 19:59N 05°36' E 000°01'0 0.0
2017-Nov-03 19:29N 05°36' E 000°01'0 0.0
2017-Nov-03 18:59N 05°36' E 000°01'0 0.0
2017-Nov-03 18:26N 05°36' E 000°01'0 0.0
2017-Nov-03 17:59N 05°36' E 000°01'0 0.0
2017-Nov-03 17:29N 05°36' E 000°01'0 0.0
2017-Nov-03 16:59N 05°36' E 000°01'0 0.0
2017-Nov-03 16:29N 05°36' E 000°01'0 0.0
2017-Nov-03 15:59N 05°36' E 000°01'0 0.0
2017-Nov-03 15:29N 05°36' E 000°01'0 0.0
2017-Nov-03 14:59N 05°36' E 000°01'0 0.0
2017-Nov-03 14:29N 05°36' E 000°01'0 0.0
2017-Nov-03 13:59N 05°36' E 000°01'0 0.0
2017-Nov-03 13:29N 05°36' E 000°01'0 0.0
2017-Nov-03 12:59N 05°36' E 000°01'0 0.0
2017-Nov-03 12:29N 05°36' E 000°01'0 0.0
2017-Nov-03 11:59N 05°36' E 000°01'0 0.0
2017-Nov-03 11:29N 05°36' E 000°01'0 0.0
2017-Nov-03 10:59N 05°36' E 000°01'0 0.0
2017-Nov-03 10:29N 05°36' E 000°01'0 0.0
2017-Nov-03 09:59N 05°36' E 000°01'0 0.0
2017-Nov-03 09:29N 05°36' E 000°01'0 0.0
2017-Nov-03 08:59N 05°36' E 000°01'0 0.0
2017-Nov-03 08:29N 05°36' E 000°01'0 0.0
2017-Nov-03 07:56N 05°36' E 000°01'0 0.0
2017-Nov-03 07:29N 05°36' E 000°01'0 0.0
2017-Nov-03 06:56N 05°36' E 000°01'0 0.0
2017-Nov-03 06:29N 05°36' E 000°01'0 0.0
2017-Nov-03 05:59N 05°36' E 000°01'0 0.0
2017-Nov-03 05:29N 05°36' E 000°01'0 0.0
2017-Nov-03 04:59N 05°36' E 000°01'0 0.0
2017-Nov-03 04:29N 05°36' E 000°01'0 0.0
2017-Nov-03 03:59N 05°36' E 000°01'0 0.0
2017-Nov-03 03:29N 05°36' E 000°01'0 0.0
2017-Nov-03 02:59N 05°36' E 000°01'0 0.0
2017-Nov-03 02:29N 05°36' E 000°01'0 0.0
2017-Nov-03 02:00N 05°36' E 000°01'0 0.0
2017-Nov-03 01:30N 05°36' E 000°01'0 0.0
2017-Nov-03 01:00N 05°36' E 000°01'0 0.0
2017-Nov-03 00:30N 05°36' E 000°01'0 0.0
2017-Nov-03 00:00N 05°36' E 000°01'0 0.0
2017-Nov-02 23:30N 05°36' E 000°01'0 0.0
2017-Nov-02 23:00N 05°36' E 000°01'0 0.0
2017-Nov-02 22:30N 05°36' E 000°01'0 0.0
2017-Nov-02 22:00N 05°36' E 000°01'0 0.0
2017-Nov-02 21:30N 05°36' E 000°01'0 0.0
2017-Nov-02 21:00N 05°36' E 000°01'0 0.0
2017-Nov-02 20:30N 05°36' E 000°01'0 0.0
2017-Nov-02 20:00N 05°36' E 000°01'0 0.0
2017-Nov-02 19:27N 05°36' E 000°01'0 0.0
2017-Nov-02 19:00N 05°36' E 000°01'0 0.0
2017-Nov-02 18:30N 05°36' E 000°01'0 0.0
2017-Nov-02 18:00N 05°36' E 000°01'0 0.0
2017-Nov-02 17:30N 05°36' E 000°01'0 0.0
2017-Nov-02 17:00N 05°36' E 000°01'0 0.0
2017-Nov-02 16:30N 05°36' E 000°01'0 0.0
2017-Nov-02 16:00N 05°36' E 000°01'0 0.0
2017-Nov-02 15:30N 05°36' E 000°01'0 0.0
2017-Nov-02 14:58N 05°36' E 000°01'0 0.0
2017-Nov-02 14:28N 05°36' E 000°01'0 0.0
2017-Nov-02 13:58N 05°36' E 000°01'0 0.0
2017-Nov-02 13:28N 05°36' E 000°01'0 0.0
2017-Nov-02 12:58N 05°36' E 000°01'0 0.0
2017-Nov-02 12:28N 05°36' E 000°01'0 0.0
2017-Nov-02 11:58N 05°36' E 000°01'0 0.0
2017-Nov-02 11:30N 05°36' E 000°01'1 1.7
2017-Nov-02 10:59N 05°37' E 000°01'0 0.0
2017-Nov-02 10:28N 05°37' E 000°01'0 0.0
2017-Nov-02 09:58N 05°37' E 000°01'0 0.0
2017-Nov-02 09:28N 05°37' E 000°01'0 0.0
2017-Nov-02 08:58N 05°37' E 000°01'0 0.0
2017-Nov-02 08:28N 05°37' E 000°01'0 0.0
2017-Nov-02 07:58N 05°37' E 000°01'0 0.0
2017-Nov-02 07:30N 05°37' E 000°01'0 0.0
2017-Nov-02 07:00N 05°37' E 000°01'0 0.0
2017-Nov-02 06:30N 05°37' E 000°01'0 0.0
2017-Nov-02 06:00N 05°37' E 000°01'0 0.0
2017-Nov-02 05:30N 05°37' E 000°01'0 0.0
2017-Nov-02 05:00N 05°37' E 000°01'0 0.0
2017-Nov-02 04:30N 05°37' E 000°01'0 0.0
2017-Nov-02 03:58N 05°37' E 000°01'0 0.0
2017-Nov-02 03:25N 05°37' E 000°01'0 0.0
2017-Nov-02 02:58N 05°37' E 000°01'0 0.0
2017-Nov-02 02:28N 05°37' E 000°01'0 0.0
2017-Nov-02 02:00N 05°37' E 000°01'0 0.0
2017-Nov-02 01:30N 05°37' E 000°01'0 0.0
2017-Nov-02 00:59N 05°37' E 000°01'0 0.0
2017-Nov-02 00:28N 05°37' E 000°01'0 0.0
2017-Nov-01 23:59N 05°37' E 000°01'0 0.0
2017-Nov-01 23:29N 05°37' E 000°01'0 0.0
2017-Nov-01 23:00N 05°37' E 000°01'0 0.0
2017-Nov-01 22:31N 05°37' E 000°01'0 0.0
2017-Nov-01 21:58N 05°37' E 000°01'0 0.0
2017-Nov-01 21:28N 05°37' E 000°01'0 0.0
2017-Nov-01 20:58N 05°37' E 000°01'0 0.0
2017-Nov-01 20:28N 05°37' E 000°01'0 0.0
2017-Nov-01 19:58N 05°37' E 000°01'0 0.0
2017-Nov-01 19:28N 05°37' E 000°01'0 0.0
2017-Nov-01 18:58N 05°37' E 000°01'0 0.0
2017-Nov-01 18:28N 05°37' E 000°01'1 0.0
2017-Oct-31 13:45N 05°38' E 000°01'0 0.0
2017-Oct-31 13:30N 05°38' E 000°01'0 0.0
2017-Oct-31 13:00N 05°38' E 000°01'0 0.0
2017-Oct-31 12:30N 05°38' E 000°01'0 0.0
2017-Oct-31 12:00N 05°38' E 000°01'0 0.0
2017-Oct-31 11:30N 05°38' E 000°01'0 0.0
2017-Oct-31 10:34N 05°38' E 000°01'0 0.0
2017-Oct-31 10:28N 05°38' E 000°01'0 0.0
2017-Oct-31 09:58N 05°38' E 000°01'0 0.0
2017-Oct-31 09:22N 05°38' E 000°01'0 0.0
2017-Oct-31 08:58N 05°38' E 000°01'0 0.2
2017-Oct-31 08:30N 05°38' E 000°01'2 3.6
2017-Oct-31 08:00N 05°37' E 000°01'0 0.5
2017-Oct-31 07:28N 05°37' E 000°01'0 0.1
2017-Oct-31 06:58N 05°37' E 000°01'0 0.0
2017-Oct-31 06:28N 05°37' E 000°01'0 0.0
2017-Oct-31 05:55N 05°37' E 000°01'0 0.0
2017-Oct-31 05:28N 05°37' E 000°01'0 0.0
2017-Oct-31 04:58N 05°37' E 000°01'0 0.0
2017-Oct-31 04:28N 05°37' E 000°01'0 0.0
2017-Oct-31 03:58N 05°37' E 000°01'0 0.0
2017-Oct-31 03:28N 05°37' E 000°01'0 0.0
2017-Oct-31 02:58N 05°37' E 000°01'0 0.0
2017-Oct-31 02:25N 05°37' E 000°01'  
Track history (hours):
 
Tides and Currents Weather Stations Pressure Air Temp Water Temp Dewpoint Dewpoint Depression Visibility Wind Speed Wind Dir Waves Ship Positions

Long Xiang 606

Last reported at 2017-Nov-10 02:00 UTC. Time now 2017-Nov-21 04:21 UTC.
Position N 05°32' E 000°01'.
Warning: this ship's position is 11 days out of date.

Length 43 m.

Type: Fishing. MMSI: 627220000.

Date/timePositionNaut miles runAvg speedWind from/ knotsBaromVisibWave heightAir tempDewpointWater temp
2017-Nov-10 02:00N 05°32' E 000°01'4 4.1
2017-Nov-10 00:59N 05°33' E 000°05'2 3.7
2017-Nov-10 00:30N 05°33' E 000°03'2 4.3
2017-Nov-10 00:01N 05°32' E 000°01'2 4.3
2017-Nov-09 23:30N 05°32' W 000°01'1 0.0
2017-Nov-09 03:58N 05°31' W 000°02'7 4.2
2017-Nov-09 02:16N 05°33' E 000°05'0 1.0
2017-Nov-09 02:00N 05°33' E 000°06'2 3.7
2017-Nov-09 01:30N 05°33' E 000°04'2 4.2
2017-Nov-09 00:55N 05°32' E 000°01'2 4.2
2017-Nov-09 00:26N 05°32' W 000°01'1 0.3
2017-Nov-08 22:18N 05°32' W 000°01'2 3.9
2017-Nov-08 21:53N 05°33' E 000°00'5 3.8
2017-Nov-08 20:31N 05°33' E 000°05'0 8.7
2017-Nov-08 20:28N 05°33' E 000°05'3 5.9
2017-Nov-08 20:00N 05°35' E 000°03'1 0.5
2017-Nov-08 18:03N 05°35' E 000°02'0 1.2
2017-Nov-08 18:00N 05°35' E 000°02'1 2.8
2017-Nov-08 17:30N 05°36' E 000°01'0 0.4
2017-Nov-08 17:00N 05°37' E 000°01'0 0.0
2017-Nov-08 16:30N 05°37' E 000°01'0 0.0
2017-Nov-08 16:00N 05°37' E 000°01'0 0.0
2017-Nov-08 15:29N 05°37' E 000°01'0 0.0
2017-Nov-08 14:59N 05°37' E 000°01'0 0.0
2017-Nov-08 14:29N 05°37' E 000°01'0 0.0
2017-Nov-08 13:59N 05°37' E 000°01'0 0.0
2017-Nov-08 13:29N 05°37' E 000°01'0 0.0
2017-Nov-08 12:59N 05°37' E 000°01'0 0.0
2017-Nov-08 12:29N 05°37' E 000°01'0 0.0
2017-Nov-08 11:59N 05°37' E 000°01'0 0.0
2017-Nov-08 11:29N 05°37' E 000°01'0 0.0
2017-Nov-08 10:59N 05°37' E 000°01'0 0.0
2017-Nov-08 10:23N 05°37' E 000°01'0 0.9
2017-Nov-08 10:00N 05°36' E 000°01'0 0.0
2017-Nov-08 09:27N 05°36' E 000°01'0 0.0
2017-Nov-08 09:00N 05°36' E 000°01'0 0.0
2017-Nov-08 08:30N 05°36' E 000°01'1 2.8
2017-Nov-08 08:00N 05°38' E 000°02'0 0.2
2017-Nov-08 07:30N 05°37' E 000°01'1 2.5
2017-Nov-08 06:59N 05°36' E 000°01'0 0.0
2017-Nov-08 06:29N 05°36' E 000°01'0 0.0
2017-Nov-08 05:59N 05°36' E 000°01'0 0.0
2017-Nov-08 05:29N 05°36' E 000°01'0 0.0
2017-Nov-08 04:56N 05°36' E 000°01'0 0.0
2017-Nov-08 04:29N 05°36' E 000°01'0 0.0
2017-Nov-08 03:59N 05°36' E 000°01'0 0.0
2017-Nov-08 03:29N 05°36' E 000°01'0 0.0
2017-Nov-08 02:59N 05°36' E 000°01'0 0.0
2017-Nov-08 02:26N 05°36' E 000°01'0 0.0
2017-Nov-08 01:59N 05°36' E 000°01'0 0.0
2017-Nov-08 01:29N 05°36' E 000°01'0 0.0
2017-Nov-08 00:59N 05°36' E 000°01'0 0.0
2017-Nov-08 00:26N 05°36' E 000°01'0 0.0
2017-Nov-07 23:59N 05°36' E 000°01'0 0.0
2017-Nov-07 23:29N 05°36' E 000°01'0 0.0
2017-Nov-07 22:59N 05°36' E 000°01'0 0.0
2017-Nov-07 22:29N 05°36' E 000°01'0 0.0
2017-Nov-07 21:59N 05°36' E 000°01'0 0.0
2017-Nov-07 21:29N 05°36' E 000°01'0 0.0
2017-Nov-07 20:56N 05°36' E 000°01'0 0.0
2017-Nov-07 20:29N 05°36' E 000°01'0 0.0
2017-Nov-07 19:59N 05°36' E 000°01'0 0.0
2017-Nov-07 19:29N 05°36' E 000°01'0 0.0
2017-Nov-07 18:59N 05°36' E 000°01'0 0.0
2017-Nov-07 18:29N 05°36' E 000°01'0 0.0
2017-Nov-07 17:59N 05°36' E 000°01'0 0.0
2017-Nov-07 17:29N 05°36' E 000°01'0 0.0
2017-Nov-07 16:59N 05°36' E 000°01'0 0.0
2017-Nov-07 16:29N 05°36' E 000°01'0 0.0
2017-Nov-07 15:59N 05°36' E 000°01'0 0.0
2017-Nov-07 15:23N 05°36' E 000°01'0 0.0
2017-Nov-07 14:59N 05°36' E 000°01'0 0.0
2017-Nov-07 14:29N 05°36' E 000°01'0 0.0
2017-Nov-07 13:59N 05°36' E 000°01'0 0.0
2017-Nov-07 13:29N 05°36' E 000°01'0 0.0
2017-Nov-07 12:59N 05°36' E 000°01'0 0.0
2017-Nov-07 12:29N 05°36' E 000°01'0 0.0
2017-Nov-07 11:59N 05°36' E 000°01'0 0.0
2017-Nov-07 11:23N 05°36' E 000°01'0 0.0
2017-Nov-07 10:59N 05°36' E 000°01'0 0.0
2017-Nov-07 10:29N 05°36' E 000°01'0 0.0
2017-Nov-07 09:59N 05°36' E 000°01'0 0.0
2017-Nov-07 09:29N 05°36' E 000°01'0 0.0
2017-Nov-07 08:59N 05°36' E 000°01'0 0.0
2017-Nov-07 08:29N 05°36' E 000°01'0 0.0
2017-Nov-07 07:59N 05°36' E 000°01'0 0.0
2017-Nov-07 07:29N 05°36' E 000°01'0 0.0
2017-Nov-07 06:59N 05°36' E 000°01'0 0.0
2017-Nov-07 06:29N 05°36' E 000°01'0 0.0
2017-Nov-07 05:59N 05°36' E 000°01'0 0.0
2017-Nov-07 05:29N 05°36' E 000°01'0 0.0
2017-Nov-07 04:59N 05°36' E 000°01'0 0.0
2017-Nov-07 04:23N 05°36' E 000°01'0 0.0
2017-Nov-07 03:59N 05°36' E 000°01'0 0.0
2017-Nov-07 03:29N 05°36' E 000°01'0 0.0
2017-Nov-07 02:59N 05°36' E 000°01'0 0.0
2017-Nov-07 02:29N 05°36' E 000°01'0 0.0
2017-Nov-07 01:59N 05°36' E 000°01'0 0.0
2017-Nov-07 01:29N 05°36' E 000°01'0 0.0
2017-Nov-07 00:59N 05°36' E 000°01'0 0.0
2017-Nov-07 00:29N 05°36' E 000°01'0 0.0
2017-Nov-06 23:59N 05°36' E 000°01'0 0.0
2017-Nov-06 23:26N 05°36' E 000°01'0 0.0
2017-Nov-06 22:59N 05°36' E 000°01'0 0.0
2017-Nov-06 22:29N 05°36' E 000°01'0 0.0
2017-Nov-06 21:59N 05°36' E 000°01'0 0.0
2017-Nov-06 21:29N 05°36' E 000°01'0 0.0
2017-Nov-06 20:59N 05°36' E 000°01'0 0.0
2017-Nov-06 20:29N 05°36' E 000°01'0 0.0
2017-Nov-06 02:29N 05°36' E 000°01'0 0.0
2017-Nov-06 01:59N 05°36' E 000°01'0 0.0
2017-Nov-06 01:29N 05°36' E 000°01'0 0.0
2017-Nov-06 00:59N 05°36' E 000°01'0 0.0
2017-Nov-06 00:29N 05°36' E 000°01'0 0.0
2017-Nov-05 23:59N 05°36' E 000°01'0 0.0
2017-Nov-05 23:29N 05°36' E 000°01'0 0.1
2017-Nov-05 22:59N 05°36' E 000°01'0 0.0
2017-Nov-05 22:29N 05°36' E 000°01'0 0.0
2017-Nov-05 21:59N 05°36' E 000°01'0 0.0
2017-Nov-05 21:29N 05°36' E 000°01'0 0.0
2017-Nov-05 20:59N 05°36' E 000°01'0 0.0
2017-Nov-05 20:29N 05°36' E 000°01'0 0.0
2017-Nov-05 19:59N 05°36' E 000°01'0 0.0
2017-Nov-05 19:29N 05°36' E 000°01'0 0.0
2017-Nov-05 18:59N 05°36' E 000°01'0 0.0
2017-Nov-05 18:29N 05°36' E 000°01'0 0.0
2017-Nov-05 17:59N 05°36' E 000°01'0 0.0
2017-Nov-05 17:29N 05°36' E 000°01'0 0.0
2017-Nov-05 16:59N 05°36' E 000°01'0 0.0
2017-Nov-05 16:29N 05°36' E 000°01'0 0.0
2017-Nov-05 15:59N 05°36' E 000°01'0 0.0
2017-Nov-05 15:29N 05°36' E 000°01'0 0.0
2017-Nov-05 14:59N 05°36' E 000°01'0 0.0
2017-Nov-05 14:29N 05°36' E 000°01'0 0.0
2017-Nov-05 13:59N 05°36' E 000°01'0 0.0
2017-Nov-05 13:29N 05°36' E 000°01'0 0.0
2017-Nov-05 12:59N 05°36' E 000°01'0 0.0
2017-Nov-05 12:29N 05°36' E 000°01'0 0.0
2017-Nov-05 11:59N 05°36' E 000°01'0 0.0
2017-Nov-05 11:29N 05°36' E 000°01'0 0.0
2017-Nov-05 10:59N 05°36' E 000°01'0 0.0
2017-Nov-05 10:29N 05°36' E 000°01'0 0.0
2017-Nov-05 09:59N 05°36' E 000°01'0 0.0
2017-Nov-05 09:29N 05°36' E 000°01'0 0.0
2017-Nov-05 08:59N 05°36' E 000°01'0 0.0
2017-Nov-05 08:29N 05°36' E 000°01'0 0.0
2017-Nov-05 07:59N 05°36' E 000°01'0 0.0
2017-Nov-05 07:29N 05°36' E 000°01'0 0.0
2017-Nov-05 06:56N 05°36' E 000°01'0 0.0
2017-Nov-05 06:29N 05°36' E 000°01'0 0.0
2017-Nov-05 05:59N 05°36' E 000°01'0 0.0
2017-Nov-05 05:29N 05°36' E 000°01'0 0.0
2017-Nov-05 04:53N 05°36' E 000°01'0 0.0
2017-Nov-05 04:29N 05°36' E 000°01'0 0.0
2017-Nov-05 03:59N 05°36' E 000°01'0 0.0
2017-Nov-05 03:29N 05°36' E 000°01'0 0.0
2017-Nov-05 02:59N 05°36' E 000°01'0 0.0
2017-Nov-05 02:29N 05°36' E 000°01'0 0.0
2017-Nov-05 01:59N 05°36' E 000°01'0 0.0
2017-Nov-05 01:29N 05°36' E 000°01'0 0.0
2017-Nov-05 00:59N 05°36' E 000°01'0 0.0
2017-Nov-05 00:29N 05°36' E 000°01'0 0.0
2017-Nov-04 23:59N 05°36' E 000°01'0 0.0
2017-Nov-04 23:29N 05°36' E 000°01'0 0.0
2017-Nov-04 22:59N 05°36' E 000°01'0 0.0
2017-Nov-04 22:29N 05°36' E 000°01'0 0.0
2017-Nov-04 21:59N 05°36' E 000°01'0 0.0
2017-Nov-04 21:29N 05°36' E 000°01'0 0.0
2017-Nov-04 20:59N 05°36' E 000°01'0 0.0
2017-Nov-04 20:29N 05°36' E 000°01'0 0.0
2017-Nov-04 19:59N 05°36' E 000°01'0 0.0
2017-Nov-04 19:29N 05°36' E 000°01'0 0.0
2017-Nov-04 18:59N 05°36' E 000°01'0 0.0
2017-Nov-04 18:29N 05°36' E 000°01'0 0.0
2017-Nov-04 17:59N 05°36' E 000°01'0 0.0
2017-Nov-04 17:29N 05°36' E 000°01'0 0.0
2017-Nov-04 16:59N 05°36' E 000°01'0 0.0
2017-Nov-04 16:29N 05°36' E 000°01'0 0.0
2017-Nov-04 15:59N 05°36' E 000°01'0 0.0
2017-Nov-04 15:29N 05°36' E 000°01'0 0.0
2017-Nov-04 14:59N 05°36' E 000°01'0 0.0
2017-Nov-04 14:29N 05°36' E 000°01'0 0.0
2017-Nov-04 13:59N 05°36' E 000°01'0 0.0
2017-Nov-04 13:29N 05°36' E 000°01'0 0.0
2017-Nov-04 12:59N 05°36' E 000°01'0 0.0
2017-Nov-04 12:29N 05°36' E 000°01'0 0.0
2017-Nov-04 11:59N 05°36' E 000°01'0 0.0
2017-Nov-04 11:29N 05°36' E 000°01'0 0.0
2017-Nov-04 10:59N 05°36' E 000°01'0 0.0
2017-Nov-04 10:29N 05°36' E 000°01'0 0.0
2017-Nov-04 09:59N 05°36' E 000°01'0 0.0
2017-Nov-04 09:29N 05°36' E 000°01'0 0.0
2017-Nov-04 08:59N 05°36' E 000°01'0 0.0
2017-Nov-04 08:29N 05°36' E 000°01'0 0.0
2017-Nov-04 07:59N 05°36' E 000°01'0 0.0
2017-Nov-04 07:23N 05°36' E 000°01'0 0.0
2017-Nov-04 06:59N 05°36' E 000°01'0 0.0
2017-Nov-04 06:29N 05°36' E 000°01'0 0.0
2017-Nov-04 05:59N 05°36' E 000°01'0 0.0
2017-Nov-04 05:29N 05°36' E 000°01'0 0.0
2017-Nov-04 04:59N 05°36' E 000°01'0 0.0
2017-Nov-04 04:29N 05°36' E 000°01'0 0.0
2017-Nov-04 03:59N 05°36' E 000°01'0 0.0
2017-Nov-04 03:29N 05°36' E 000°01'0 0.0
2017-Nov-04 02:59N 05°36' E 000°01'0 0.0
2017-Nov-04 02:26N 05°36' E 000°01'0 0.0
2017-Nov-04 01:59N 05°36' E 000°01'0 0.0
2017-Nov-04 01:29N 05°36' E 000°01'0 0.0
2017-Nov-04 00:59N 05°36' E 000°01'0 0.0
2017-Nov-04 00:29N 05°36' E 000°01'0 0.0
2017-Nov-03 23:59N 05°36' E 000°01'0 0.0
2017-Nov-03 23:29N 05°36' E 000°01'0 0.0
2017-Nov-03 22:59N 05°36' E 000°01'0 0.0
2017-Nov-03 22:29N 05°36' E 000°01'0 0.0
2017-Nov-03 21:59N 05°36' E 000°01'0 0.0
2017-Nov-03 21:29N 05°36' E 000°01'0 0.0
2017-Nov-03 20:59N 05°36' E 000°01'0 0.0
2017-Nov-03 20:26N 05°36' E 000°01'0 0.0
2017-Nov-03 19:59N 05°36' E 000°01'0 0.0
2017-Nov-03 19:29N 05°36' E 000°01'0 0.0
2017-Nov-03 18:59N 05°36' E 000°01'0 0.0
2017-Nov-03 18:26N 05°36' E 000°01'0 0.0
2017-Nov-03 17:59N 05°36' E 000°01'0 0.0
2017-Nov-03 17:29N 05°36' E 000°01'0 0.0
2017-Nov-03 16:59N 05°36' E 000°01'0 0.0
2017-Nov-03 16:29N 05°36' E 000°01'0 0.0
2017-Nov-03 15:59N 05°36' E 000°01'0 0.0
2017-Nov-03 15:29N 05°36' E 000°01'0 0.0
2017-Nov-03 14:59N 05°36' E 000°01'0 0.0
2017-Nov-03 14:29N 05°36' E 000°01'0 0.0
2017-Nov-03 13:59N 05°36' E 000°01'0 0.0
2017-Nov-03 13:29N 05°36' E 000°01'0 0.0
2017-Nov-03 12:59N 05°36' E 000°01'0 0.0
2017-Nov-03 12:29N 05°36' E 000°01'0 0.0
2017-Nov-03 11:59N 05°36' E 000°01'0 0.0
2017-Nov-03 11:29N 05°36' E 000°01'0 0.0
2017-Nov-03 10:59N 05°36' E 000°01'0 0.0
2017-Nov-03 10:29N 05°36' E 000°01'0 0.0
2017-Nov-03 09:59N 05°36' E 000°01'0 0.0
2017-Nov-03 09:29N 05°36' E 000°01'0 0.0
2017-Nov-03 08:59N 05°36' E 000°01'0 0.0
2017-Nov-03 08:29N 05°36' E 000°01'0 0.0
2017-Nov-03 07:56N 05°36' E 000°01'0 0.0
2017-Nov-03 07:29N 05°36' E 000°01'0 0.0
2017-Nov-03 06:56N 05°36' E 000°01'0 0.0
2017-Nov-03 06:29N 05°36' E 000°01'0 0.0
2017-Nov-03 05:59N 05°36' E 000°01'0 0.0
2017-Nov-03 05:29N 05°36' E 000°01'0 0.0
2017-Nov-03 04:59N 05°36' E 000°01'0 0.0
2017-Nov-03 04:29N 05°36' E 000°01'0 0.0
2017-Nov-03 03:59N 05°36' E 000°01'0 0.0
2017-Nov-03 03:29N 05°36' E 000°01'0 0.0
2017-Nov-03 02:59N 05°36' E 000°01'0 0.0
2017-Nov-03 02:29N 05°36' E 000°01'0 0.0
2017-Nov-03 02:00N 05°36' E 000°01'0 0.0
2017-Nov-03 01:30N 05°36' E 000°01'0 0.0
2017-Nov-03 01:00N 05°36' E 000°01'0 0.0
2017-Nov-03 00:30N 05°36' E 000°01'0 0.0
2017-Nov-03 00:00N 05°36' E 000°01'0 0.0
2017-Nov-02 23:30N 05°36' E 000°01'0 0.0
2017-Nov-02 23:00N 05°36' E 000°01'0 0.0
2017-Nov-02 22:30N 05°36' E 000°01'0 0.0
2017-Nov-02 22:00N 05°36' E 000°01'0 0.0
2017-Nov-02 21:30N 05°36' E 000°01'0 0.0
2017-Nov-02 21:00N 05°36' E 000°01'0 0.0
2017-Nov-02 20:30N 05°36' E 000°01'0 0.0
2017-Nov-02 20:00N 05°36' E 000°01'0 0.0
2017-Nov-02 19:27N 05°36' E 000°01'0 0.0
2017-Nov-02 19:00N 05°36' E 000°01'0 0.0
2017-Nov-02 18:30N 05°36' E 000°01'0 0.0
2017-Nov-02 18:00N 05°36' E 000°01'0 0.0
2017-Nov-02 17:30N 05°36' E 000°01'0 0.0
2017-Nov-02 17:00N 05°36' E 000°01'0 0.0
2017-Nov-02 16:30N 05°36' E 000°01'0 0.0
2017-Nov-02 16:00N 05°36' E 000°01'0 0.0
2017-Nov-02 15:30N 05°36' E 000°01'0 0.0
2017-Nov-02 14:58N 05°36' E 000°01'0 0.0
2017-Nov-02 14:28N 05°36' E 000°01'0 0.0
2017-Nov-02 13:58N 05°36' E 000°01'0 0.0
2017-Nov-02 13:28N 05°36' E 000°01'0 0.0
2017-Nov-02 12:58N 05°36' E 000°01'0 0.0
2017-Nov-02 12:28N 05°36' E 000°01'0 0.0
2017-Nov-02 11:58N 05°36' E 000°01'0 0.0
2017-Nov-02 11:30N 05°36' E 000°01'1 1.7
2017-Nov-02 10:59N 05°37' E 000°01'0 0.0
2017-Nov-02 10:28N 05°37' E 000°01'0 0.0
2017-Nov-02 09:58N 05°37' E 000°01'0 0.0
2017-Nov-02 09:28N 05°37' E 000°01'0 0.0
2017-Nov-02 08:58N 05°37' E 000°01'0 0.0
2017-Nov-02 08:28N 05°37' E 000°01'0 0.0
2017-Nov-02 07:58N 05°37' E 000°01'0 0.0
2017-Nov-02 07:30N 05°37' E 000°01'0 0.0
2017-Nov-02 07:00N 05°37' E 000°01'0 0.0
2017-Nov-02 06:30N 05°37' E 000°01'0 0.0
2017-Nov-02 06:00N 05°37' E 000°01'0 0.0
2017-Nov-02 05:30N 05°37' E 000°01'0 0.0
2017-Nov-02 05:00N 05°37' E 000°01'0 0.0
2017-Nov-02 04:30N 05°37' E 000°01'0 0.0
2017-Nov-02 03:58N 05°37' E 000°01'0 0.0
2017-Nov-02 03:25N 05°37' E 000°01'0 0.0
2017-Nov-02 02:58N 05°37' E 000°01'0 0.0
2017-Nov-02 02:28N 05°37' E 000°01'0 0.0
2017-Nov-02 02:00N 05°37' E 000°01'0 0.0
2017-Nov-02 01:30N 05°37' E 000°01'0 0.0
2017-Nov-02 00:59N 05°37' E 000°01'0 0.0
2017-Nov-02 00:28N 05°37' E 000°01'0 0.0
2017-Nov-01 23:59N 05°37' E 000°01'0 0.0
2017-Nov-01 23:29N 05°37' E 000°01'0 0.0
2017-Nov-01 23:00N 05°37' E 000°01'0 0.0
2017-Nov-01 22:31N 05°37' E 000°01'0 0.0
2017-Nov-01 21:58N 05°37' E 000°01'0 0.0
2017-Nov-01 21:28N 05°37' E 000°01'0 0.0
2017-Nov-01 20:58N 05°37' E 000°01'0 0.0
2017-Nov-01 20:28N 05°37' E 000°01'0 0.0
2017-Nov-01 19:58N 05°37' E 000°01'0 0.0
2017-Nov-01 19:28N 05°37' E 000°01'0 0.0
2017-Nov-01 18:58N 05°37' E 000°01'0 0.0
2017-Nov-01 18:28N 05°37' E 000°01'1 0.0
2017-Oct-31 13:45N 05°38' E 000°01'0 0.0
2017-Oct-31 13:30N 05°38' E 000°01'0 0.0
2017-Oct-31 13:00N 05°38' E 000°01'0 0.0
2017-Oct-31 12:30N 05°38' E 000°01'0 0.0
2017-Oct-31 12:00N 05°38' E 000°01'0 0.0
2017-Oct-31 11:30N 05°38' E 000°01'0 0.0
2017-Oct-31 10:34N 05°38' E 000°01'0 0.0
2017-Oct-31 10:28N 05°38' E 000°01'0 0.0
2017-Oct-31 09:58N 05°38' E 000°01'0 0.0
2017-Oct-31 09:22N 05°38' E 000°01'0 0.0
2017-Oct-31 08:58N 05°38' E 000°01'0 0.2
2017-Oct-31 08:30N 05°38' E 000°01'2 3.6
2017-Oct-31 08:00N 05°37' E 000°01'0 0.5
2017-Oct-31 07:28N 05°37' E 000°01'0 0.1
2017-Oct-31 06:58N 05°37' E 000°01'0 0.0
2017-Oct-31 06:28N 05°37' E 000°01'0 0.0
2017-Oct-31 05:55N 05°37' E 000°01'0 0.0
2017-Oct-31 05:28N 05°37' E 000°01'0 0.0
2017-Oct-31 04:58N 05°37' E 000°01'0 0.0
2017-Oct-31 04:28N 05°37' E 000°01'0 0.0
2017-Oct-31 03:58N 05°37' E 000°01'0 0.0
2017-Oct-31 03:28N 05°37' E 000°01'0 0.0
2017-Oct-31 02:58N 05°37' E 000°01'0 0.0
2017-Oct-31 02:25N 05°37' E 000°01'  

Dump ship's entire track history